Terminal Aerodrome Forecast
Issued by NWS Raleigh/Durham, NC

Home | Current Version | Previous Version | Text Only | Print | Product List | Glossary On
Versions: 1 2 3 4 5 6 7 8 9 10 11 12 13 14 15 16 17 18 19 20 21
000
FTUS42 KRAH 271733 CCB
TAFFAY
TAF COR
KFAY 271733Z 2718/2818 15006KT P6SM FEW140
     FM280000 00000KT P6SM OVC140
     FM280900 VRB03KT P6SM SCT035 OVC090
      TEMPO 2810/2814 6SM -SHRA BR BKN035
     FM281500 18006KT P6SM SCT035 BKN250
      AMD NOT SKED=

USA.gov is the U.S. government's official web portal to all federal, state and local government web resources and services.